sensor_id;sensor_type;location;lat;lon;timestamp;pressure;altitude;pressure_sealevel;temperature;humidity
85669;BME280;76101;44.794;10.344;2024-03-22T00:02:01;101548.00;;;16.82;61.65
85669;BME280;76101;44.794;10.344;2024-03-22T00:05:20;101532.16;;;16.80;61.44
85669;BME280;76101;44.794;10.344;2024-03-22T00:08:37;101548.81;;;16.76;61.44
85669;BME280;76101;44.794;10.344;2024-03-22T00:11:40;101551.91;;;16.73;61.92
85669;BME280;76101;44.794;10.344;2024-03-22T00:15:15;101545.31;;;16.75;61.55
85669;BME280;76101;44.794;10.344;2024-03-22T00:18:15;101547.81;;;16.70;61.65
85669;BME280;76101;44.794;10.344;2024-03-22T00:21:16;101552.72;;;16.73;61.74
85669;BME280;76101;44.794;10.344;2024-03-22T00:24:16;101557.06;;;16.68;61.78
85669;BME280;76101;44.794;10.344;2024-03-22T00:27:17;101554.78;;;16.71;61.75
85669;BME280;76101;44.794;10.344;2024-03-22T00:30:17;101551.91;;;16.66;61.57
85669;BME280;76101;44.794;10.344;2024-03-22T00:36:28;101538.31;;;16.54;61.72
85669;BME280;76101;44.794;10.344;2024-03-22T00:39:28;101539.97;;;16.49;61.82
85669;BME280;76101;44.794;10.344;2024-03-22T00:42:28;101532.53;;;16.44;62.02
85669;BME280;76101;44.794;10.344;2024-03-22T00:45:28;101535.22;;;16.44;61.98
85669;BME280;76101;44.794;10.344;2024-03-22T00:48:29;101539.16;;;16.48;61.88
85669;BME280;76101;44.794;10.344;2024-03-22T00:51:29;101533.56;;;16.43;61.80
85669;BME280;76101;44.794;10.344;2024-03-22T00:54:30;101532.34;;;16.33;62.39
85669;BME280;76101;44.794;10.344;2024-03-22T00:57:30;101538.13;;;16.30;62.25
85669;BME280;76101;44.794;10.344;2024-03-22T01:00:30;101543.47;;;16.36;62.08
85669;BME280;76101;44.794;10.344;2024-03-22T01:03:31;101538.28;;;16.28;62.08
85669;BME280;76101;44.794;10.344;2024-03-22T01:06:31;101543.03;;;16.26;62.12
85669;BME280;76101;44.794;10.344;2024-03-22T01:09:31;101534.38;;;16.24;62.15
85669;BME280;76101;44.794;10.344;2024-03-22T01:12:32;101536.88;;;16.19;61.78
85669;BME280;76101;44.794;10.344;2024-03-22T01:15:32;101525.75;;;16.02;62.10
85669;BME280;76101;44.794;10.344;2024-03-22T01:18:33;101533.31;;;15.92;62.25
85669;BME280;76101;44.794;10.344;2024-03-22T01:21:33;101527.09;;;15.78;62.63
85669;BME280;76101;44.794;10.344;2024-03-22T01:24:34;101529.41;;;15.81;62.91
85669;BME280;76101;44.794;10.344;2024-03-22T01:27:52;101523.19;;;15.74;62.54
85669;BME280;76101;44.794;10.344;2024-03-22T01:31:11;101536.97;;;15.71;62.88
85669;BME280;76101;44.794;10.344;2024-03-22T01:34:12;101531.63;;;15.64;63.07
85669;BME280;76101;44.794;10.344;2024-03-22T01:37:12;101529.16;;;15.76;62.74
85669;BME280;76101;44.794;10.344;2024-03-22T01:40:13;101539.44;;;15.73;62.61
85669;BME280;76101;44.794;10.344;2024-03-22T01:43:13;101529.97;;;15.70;62.86
85669;BME280;76101;44.794;10.344;2024-03-22T01:46:14;101532.44;;;15.72;62.99
85669;BME280;76101;44.794;10.344;2024-03-22T01:49:53;101529.56;;;15.73;62.45
85669;BME280;76101;44.794;10.344;2024-03-22T01:52:55;101534.50;;;15.76;62.44
85669;BME280;76101;44.794;10.344;2024-03-22T01:59:37;101532.84;;;15.62;62.08
85669;BME280;76101;44.794;10.344;2024-03-22T02:02:38;101527.69;;;15.60;61.79
85669;BME280;76101;44.794;10.344;2024-03-22T02:05:48;101522.44;;;15.32;62.56
85669;BME280;76101;44.794;10.344;2024-03-22T02:12:45;101522.44;;;15.32;62.56
85669;BME280;76101;44.794;10.344;2024-03-22T02:16:23;101526.53;;;15.28;62.56
85669;BME280;76101;44.794;10.344;2024-03-22T02:19:23;101528.50;;;15.13;62.62
85669;BME280;76101;44.794;10.344;2024-03-22T02:22:23;101535.00;;;15.04;62.81
85669;BME280;76101;44.794;10.344;2024-03-22T02:25:24;101533.13;;;14.98;62.45
85669;BME280;76101;44.794;10.344;2024-03-22T02:28:24;101532.75;;;14.73;63.46
85669;BME280;76101;44.794;10.344;2024-03-22T02:31:27;101531.69;;;14.67;63.52
85669;BME280;76101;44.794;10.344;2024-03-22T02:34:28;101543.19;;;14.68;63.66
85669;BME280;76101;44.794;10.344;2024-03-22T02:37:28;101543.16;;;14.61;63.69
85669;BME280;76101;44.794;10.344;2024-03-22T02:40:28;101541.56;;;14.73;63.63
85669;BME280;76101;44.794;10.344;2024-03-22T02:43:29;101538.16;;;14.80;63.19
85669;BME280;76101;44.794;10.344;2024-03-22T02:46:30;101539.69;;;14.67;63.19
85669;BME280;76101;44.794;10.344;2024-03-22T02:49:30;101542.50;;;14.59;63.34
85669;BME280;76101;44.794;10.344;2024-03-22T02:52:30;101540.84;;;14.58;62.72
85669;BME280;76101;44.794;10.344;2024-03-22T02:55:40;101539.97;;;14.51;63.12
85669;BME280;76101;44.794;10.344;2024-03-22T02:58:40;101534.22;;;14.48;63.18
85669;BME280;76101;44.794;10.344;2024-03-22T03:01:41;101519.47;;;14.52;63.04
85669;BME280;76101;44.794;10.344;2024-03-22T03:04:41;101535.50;;;14.58;62.62
85669;BME280;76101;44.794;10.344;2024-03-22T03:07:41;101531.47;;;14.62;61.47
85669;BME280;76101;44.794;10.344;2024-03-22T03:10:42;101526.75;;;14.64;60.70
85669;BME280;76101;44.794;10.344;2024-03-22T03:13:42;101530.03;;;14.66;59.98
85669;BME280;76101;44.794;10.344;2024-03-22T03:16:42;101520.59;;;14.64;60.04
85669;BME280;76101;44.794;10.344;2024-03-22T03:19:44;101529.94;;;14.53;59.98
85669;BME280;76101;44.794;10.344;2024-03-22T03:22:44;101532.84;;;14.37;60.47
85669;BME280;76101;44.794;10.344;2024-03-22T03:25:45;101544.34;;;14.37;60.05
85669;BME280;76101;44.794;10.344;2024-03-22T03:28:46;101545.44;;;14.22;60.42
85669;BME280;76101;44.794;10.344;2024-03-22T03:31:46;101543.91;;;14.12;60.49
85669;BME280;76101;44.794;10.344;2024-03-22T03:34:46;101545.44;;;14.00;60.78
85669;BME280;76101;44.794;10.344;2024-03-22T03:37:47;101540.53;;;13.82;61.03
85669;BME280;76101;44.794;10.344;2024-03-22T03:40:47;101542.47;;;13.74;61.62
85669;BME280;76101;44.794;10.344;2024-03-22T03:43:48;101542.38;;;13.82;61.66
85669;BME280;76101;44.794;10.344;2024-03-22T03:46:48;101546.69;;;13.83;61.71
85669;BME280;76101;44.794;10.344;2024-03-22T03:49:48;101547.50;;;13.83;61.72
85669;BME280;76101;44.794;10.344;2024-03-22T03:52:49;101551.19;;;13.82;62.05
85669;BME280;76101;44.794;10.344;2024-03-22T03:55:49;101548.97;;;13.86;61.92
85669;BME280;76101;44.794;10.344;2024-03-22T03:58:49;101557.22;;;13.91;62.00
85669;BME280;76101;44.794;10.344;2024-03-22T04:01:49;101563.00;;;13.95;61.44
85669;BME280;76101;44.794;10.344;2024-03-22T04:04:52;101557.00;;;13.93;62.21
85669;BME280;76101;44.794;10.344;2024-03-22T04:07:53;101559.38;;;14.02;61.66
85669;BME280;76101;44.794;10.344;2024-03-22T04:10:54;101560.50;;;13.93;61.31
85669;BME280;76101;44.794;10.344;2024-03-22T04:13:58;101557.84;;;13.93;61.70
85669;BME280;76101;44.794;10.344;2024-03-22T04:16:58;101562.91;;;13.88;61.75
85669;BME280;76101;44.794;10.344;2024-03-22T04:19:58;101554.22;;;13.79;61.71
85669;BME280;76101;44.794;10.344;2024-03-22T04:23:02;101559.75;;;13.78;61.60
85669;BME280;76101;44.794;10.344;2024-03-22T04:26:02;101549.94;;;13.64;62.17
85669;BME280;76101;44.794;10.344;2024-03-22T04:29:25;101555.72;;;13.67;61.94
85669;BME280;76101;44.794;10.344;2024-03-22T04:32:25;101543.22;;;13.68;61.85
85669;BME280;76101;44.794;10.344;2024-03-22T04:35:26;101549.00;;;13.71;61.59
85669;BME280;76101;44.794;10.344;2024-03-22T04:38:27;101557.75;;;13.65;61.82
85669;BME280;76101;44.794;10.344;2024-03-22T04:41:28;101556.16;;;13.71;61.54
85669;BME280;76101;44.794;10.344;2024-03-22T04:44:28;101549.81;;;13.72;61.58
85669;BME280;76101;44.794;10.344;2024-03-22T04:47:28;101546.91;;;13.67;61.61
85669;BME280;76101;44.794;10.344;2024-03-22T04:50:29;101553.59;;;13.77;61.86
85669;BME280;76101;44.794;10.344;2024-03-22T04:53:29;101556.72;;;13.81;61.61
85669;BME280;76101;44.794;10.344;2024-03-22T04:56:29;101557.09;;;13.78;61.44
85669;BME280;76101;44.794;10.344;2024-03-22T04:59:29;101556.41;;;13.76;61.09
85669;BME280;76101;44.794;10.344;2024-03-22T05:12:00;101553.22;;;13.44;62.06
85669;BME280;76101;44.794;10.344;2024-03-22T05:15:02;101555.19;;;13.42;62.04
85669;BME280;76101;44.794;10.344;2024-03-22T05:18:03;101554.28;;;13.50;61.98
85669;BME280;76101;44.794;10.344;2024-03-22T05:21:04;101558.16;;;13.47;62.10
85669;BME280;76101;44.794;10.344;2024-03-22T05:24:05;101564.19;;;13.41;62.37
85669;BME280;76101;44.794;10.344;2024-03-22T05:27:06;101566.59;;;13.36;62.37
85669;BME280;76101;44.794;10.344;2024-03-22T05:30:06;101569.72;;;13.40;61.97
85669;BME280;76101;44.794;10.344;2024-03-22T05:33:07;101573.94;;;13.34;62.13
85669;BME280;76101;44.794;10.344;2024-03-22T05:36:07;101577.88;;;13.38;61.89
85669;BME280;76101;44.794;10.344;2024-03-22T05:39:08;101579.00;;;13.44;62.12
85669;BME280;76101;44.794;10.344;2024-03-22T05:42:10;101579.72;;;13.52;61.69
85669;BME280;76101;44.794;10.344;2024-03-22T05:45:11;101586.59;;;13.62;61.42
85669;BME280;76101;44.794;10.344;2024-03-22T05:48:11;101589.13;;;13.70;61.50
85669;BME280;76101;44.794;10.344;2024-03-22T05:51:17;101577.81;;;13.82;61.21
85669;BME280;76101;44.794;10.344;2024-03-22T06:10:09;101587.91;;;13.87;60.97
85669;BME280;76101;44.794;10.344;2024-03-22T06:22:43;101599.94;;;14.19;60.90
85669;BME280;76101;44.794;10.344;2024-03-22T06:26:13;101604.69;;;14.24;60.36
85669;BME280;76101;44.794;10.344;2024-03-22T06:29:13;101607.22;;;14.10;59.64
85669;BME280;76101;44.794;10.344;2024-03-22T06:32:16;101618.44;;;14.06;59.72
85669;BME280;76101;44.794;10.344;2024-03-22T06:35:16;101617.41;;;13.85;60.05
85669;BME280;76101;44.794;10.344;2024-03-22T06:38:17;101612.91;;;13.86;60.08
85669;BME280;76101;44.794;10.344;2024-03-22T06:41:17;101613.69;;;14.01;60.17
85669;BME280;76101;44.794;10.344;2024-03-22T06:44:18;101613.44;;;13.96;60.10
85669;BME280;76101;44.794;10.344;2024-03-22T06:56:49;101618.25;;;14.07;59.39
85669;BME280;76101;44.794;10.344;2024-03-22T07:09:22;101622.88;;;14.56;58.91
85669;BME280;76101;44.794;10.344;2024-03-22T07:15:33;101632.41;;;14.65;58.45
85669;BME280;76101;44.794;10.344;2024-03-22T07:18:34;101634.44;;;14.63;58.27
85669;BME280;76101;44.794;10.344;2024-03-22T07:21:34;101634.06;;;14.66;58.48
85669;BME280;76101;44.794;10.344;2024-03-22T07:24:37;101638.00;;;14.70;58.63
85669;BME280;76101;44.794;10.344;2024-03-22T07:27:38;101639.31;;;14.81;58.65
85669;BME280;76101;44.794;10.344;2024-03-22T07:30:38;101640.41;;;14.93;58.04
85669;BME280;76101;44.794;10.344;2024-03-22T07:33:39;101641.00;;;14.89;58.27
85669;BME280;76101;44.794;10.344;2024-03-22T07:36:40;101644.13;;;14.92;58.41
85669;BME280;76101;44.794;10.344;2024-03-22T07:39:40;101644.69;;;14.88;58.58
85669;BME280;76101;44.794;10.344;2024-03-22T07:42:41;101640.88;;;14.97;58.35
85669;BME280;76101;44.794;10.344;2024-03-22T07:45:41;101630.22;;;14.97;58.88
85669;BME280;76101;44.794;10.344;2024-03-22T07:48:41;101640.91;;;15.03;59.01
85669;BME280;76101;44.794;10.344;2024-03-22T07:51:42;101640.59;;;15.13;58.70
85669;BME280;76101;44.794;10.344;2024-03-22T07:54:42;101643.50;;;15.18;58.80
85669;BME280;76101;44.794;10.344;2024-03-22T07:57:42;101638.56;;;15.15;58.69
85669;BME280;76101;44.794;10.344;2024-03-22T08:00:43;101647.41;;;15.22;58.56
85669;BME280;76101;44.794;10.344;2024-03-22T08:03:43;101639.09;;;15.39;58.52
85669;BME280;76101;44.794;10.344;2024-03-22T08:06:43;101638.50;;;15.43;57.99
85669;BME280;76101;44.794;10.344;2024-03-22T08:09:44;101643.22;;;15.41;57.88
85669;BME280;76101;44.794;10.344;2024-03-22T08:12:44;101641.03;;;15.51;58.10
85669;BME280;76101;44.794;10.344;2024-03-22T08:15:45;101649.88;;;15.58;57.86
85669;BME280;76101;44.794;10.344;2024-03-22T08:18:46;101643.69;;;15.51;57.59
85669;BME280;76101;44.794;10.344;2024-03-22T08:21:46;101647.81;;;15.54;57.72
85669;BME280;76101;44.794;10.344;2024-03-22T08:34:45;101639.09;;;15.39;58.15
85669;BME280;76101;44.794;10.344;2024-03-22T08:37:46;101645.19;;;15.60;57.75
85669;BME280;76101;44.794;10.344;2024-03-22T08:40:46;101650.41;;;15.69;57.89
85669;BME280;76101;44.794;10.344;2024-03-22T08:44:07;101656.25;;;15.57;58.68
85669;BME280;76101;44.794;10.344;2024-03-22T09:23:25;101632.81;;;15.94;59.56
85669;BME280;76101;44.794;10.344;2024-03-22T09:30:22;101638.25;;;16.14;59.43
85669;BME280;76101;44.794;10.344;2024-03-22T10:31:55;101574.84;;;17.91;53.67
85669;BME280;76101;44.794;10.344;2024-03-22T10:34:57;101567.16;;;18.01;53.41
85669;BME280;76101;44.794;10.344;2024-03-22T10:37:59;101578.34;;;18.23;52.21
85669;BME280;76101;44.794;10.344;2024-03-22T10:41:00;101570.75;;;18.20;52.07
85669;BME280;76101;44.794;10.344;2024-03-22T10:44:01;101574.19;;;18.27;52.31
85669;BME280;76101;44.794;10.344;2024-03-22T10:47:04;101567.31;;;18.38;52.15
85669;BME280;76101;44.794;10.344;2024-03-22T10:53:09;101559.09;;;18.58;51.08
85669;BME280;76101;44.794;10.344;2024-03-22T10:56:17;101547.50;;;18.64;51.07
85669;BME280;76101;44.794;10.344;2024-03-22T10:59:19;101540.97;;;18.78;51.08
85669;BME280;76101;44.794;10.344;2024-03-22T11:02:23;101546.06;;;18.86;51.67
85669;BME280;76101;44.794;10.344;2024-03-22T11:05:25;101547.41;;;18.96;51.49
85669;BME280;76101;44.794;10.344;2024-03-22T11:08:27;101539.75;;;18.99;51.51
85669;BME280;76101;44.794;10.344;2024-03-22T11:11:28;101531.59;;;19.06;51.78
85669;BME280;76101;44.794;10.344;2024-03-22T11:14:31;101527.78;;;19.13;50.99
85669;BME280;76101;44.794;10.344;2024-03-22T11:17:31;101520.50;;;19.20;50.93
85669;BME280;76101;44.794;10.344;2024-03-22T11:20:40;101513.97;;;19.28;51.01
85669;BME280;76101;44.794;10.344;2024-03-22T11:23:46;101512.03;;;19.35;50.49
85669;BME280;76101;44.794;10.344;2024-03-22T11:29:57;101501.88;;;19.56;50.41
85669;BME280;76101;44.794;10.344;2024-03-22T11:33:00;101495.81;;;19.60;49.41
85669;BME280;76101;44.794;10.344;2024-03-22T11:43:51;101476.47;;;19.81;48.55
85669;BME280;76101;44.794;10.344;2024-03-22T11:51:30;101470.22;;;19.99;47.04
85669;BME280;76101;44.794;10.344;2024-03-22T11:54:52;101471.16;;;20.05;46.67
85669;BME280;76101;44.794;10.344;2024-03-22T11:58:14;101468.41;;;20.58;45.81
85669;BME280;76101;44.794;10.344;2024-03-22T12:05:12;101450.31;;;21.96;42.38
85669;BME280;76101;44.794;10.344;2024-03-22T12:08:12;101441.50;;;21.67;42.78
85669;BME280;76101;44.794;10.344;2024-03-22T12:11:51;101443.03;;;21.63;43.82
85669;BME280;76101;44.794;10.344;2024-03-22T12:14:58;101433.47;;;21.55;40.57
85669;BME280;76101;44.794;10.344;2024-03-22T12:29:22;101415.63;;;21.38;41.45
85669;BME280;76101;44.794;10.344;2024-03-22T12:32:49;101410.06;;;21.44;40.86
85669;BME280;76101;44.794;10.344;2024-03-22T12:40:19;101388.25;;;21.46;38.91
85669;BME280;76101;44.794;10.344;2024-03-22T12:43:20;101393.66;;;21.46;39.35
85669;BME280;76101;44.794;10.344;2024-03-22T12:46:20;101380.84;;;21.53;39.09
85669;BME280;76101;44.794;10.344;2024-03-22T12:49:30;101371.69;;;21.54;39.52
85669;BME280;76101;44.794;10.344;2024-03-22T12:52:33;101366.88;;;21.56;38.62
85669;BME280;76101;44.794;10.344;2024-03-22T12:55:34;101353.63;;;21.71;38.45
85669;BME280;76101;44.794;10.344;2024-03-22T12:58:34;101355.00;;;21.90;38.52
85669;BME280;76101;44.794;10.344;2024-03-22T13:01:39;101360.56;;;22.01;38.85
85669;BME280;76101;44.794;10.344;2024-03-22T13:17:23;101330.97;;;22.06;36.81
85669;BME280;76101;44.794;10.344;2024-03-22T13:20:23;101324.00;;;22.10;37.29
85669;BME280;76101;44.794;10.344;2024-03-22T13:36:51;101295.72;;;22.34;36.43
85669;BME280;76101;44.794;10.344;2024-03-22T13:39:55;101286.88;;;22.39;37.07
85669;BME280;76101;44.794;10.344;2024-03-22T13:46:58;101275.03;;;22.45;36.28
85669;BME280;76101;44.794;10.344;2024-03-22T13:49:59;101262.41;;;22.50;35.41
85669;BME280;76101;44.794;10.344;2024-03-22T14:55:01;101181.75;;;23.18;32.10
85669;BME280;76101;44.794;10.344;2024-03-22T14:58:02;101183.41;;;23.24;32.96
85669;BME280;76101;44.794;10.344;2024-03-22T15:07:23;101164.78;;;23.33;31.08
85669;BME280;76101;44.794;10.344;2024-03-22T15:10:48;101170.00;;;23.45;30.69
85669;BME280;76101;44.794;10.344;2024-03-22T15:14:14;101171.91;;;23.49;30.58
85669;BME280;76101;44.794;10.344;2024-03-22T15:17:26;101153.25;;;23.48;29.81
85669;BME280;76101;44.794;10.344;2024-03-22T15:20:26;101158.69;;;23.53;30.54
85669;BME280;76101;44.794;10.344;2024-03-22T15:43:12;101129.97;;;23.47;31.94
85669;BME280;76101;44.794;10.344;2024-03-22T15:46:41;101138.06;;;23.41;31.60
85669;BME280;76101;44.794;10.344;2024-03-22T15:53:42;101123.91;;;23.19;30.40
85669;BME280;76101;44.794;10.344;2024-03-22T15:56:42;101121.69;;;23.16;31.35
85669;BME280;76101;44.794;10.344;2024-03-22T15:59:43;101124.94;;;23.13;31.45
85669;BME280;76101;44.794;10.344;2024-03-22T16:02:44;101126.81;;;23.13;31.26
85669;BME280;76101;44.794;10.344;2024-03-22T16:05:51;101123.50;;;23.00;31.94
85669;BME280;76101;44.794;10.344;2024-03-22T16:08:51;101122.44;;;23.01;31.74
85669;BME280;76101;44.794;10.344;2024-03-22T16:11:52;101118.34;;;22.99;31.27
85669;BME280;76101;44.794;10.344;2024-03-22T16:14:52;101119.97;;;23.00;31.76
85669;BME280;76101;44.794;10.344;2024-03-22T16:17:52;101121.03;;;22.94;31.43
85669;BME280;76101;44.794;10.344;2024-03-22T16:27:07;101112.50;;;22.80;31.27
85669;BME280;76101;44.794;10.344;2024-03-22T16:30:09;101107.06;;;22.75;31.63
85669;BME280;76101;44.794;10.344;2024-03-22T16:33:09;101101.66;;;22.70;31.33
85669;BME280;76101;44.794;10.344;2024-03-22T16:36:09;101097.25;;;22.64;32.03
85669;BME280;76101;44.794;10.344;2024-03-22T16:39:10;101102.59;;;22.54;32.31
85669;BME280;76101;44.794;10.344;2024-03-22T16:42:10;101098.53;;;22.51;32.73
85669;BME280;76101;44.794;10.344;2024-03-22T16:45:11;101099.53;;;22.45;33.36
85669;BME280;76101;44.794;10.344;2024-03-22T16:48:12;101108.38;;;22.35;33.86
85669;BME280;76101;44.794;10.344;2024-03-22T16:51:12;101106.69;;;22.29;34.33
85669;BME280;76101;44.794;10.344;2024-03-22T16:54:12;101103.13;;;22.24;34.56
85669;BME280;76101;44.794;10.344;2024-03-22T16:57:13;101103.31;;;22.17;34.78
85669;BME280;76101;44.794;10.344;2024-03-22T17:00:14;101102.72;;;22.10;35.28
85669;BME280;76101;44.794;10.344;2024-03-22T17:03:14;101109.94;;;22.04;35.16
85669;BME280;76101;44.794;10.344;2024-03-22T17:06:14;101108.56;;;22.02;35.71
85669;BME280;76101;44.794;10.344;2024-03-22T17:09:18;101110.34;;;21.96;35.35
85669;BME280;76101;44.794;10.344;2024-03-22T17:12:21;101108.13;;;21.88;35.82
85669;BME280;76101;44.794;10.344;2024-03-22T17:15:21;101106.16;;;21.83;35.88
85669;BME280;76101;44.794;10.344;2024-03-22T17:18:36;101108.81;;;21.78;35.87
85669;BME280;76101;44.794;10.344;2024-03-22T17:21:39;101110.13;;;21.76;35.68
85669;BME280;76101;44.794;10.344;2024-03-22T17:24:39;101113.03;;;21.69;36.35
85669;BME280;76101;44.794;10.344;2024-03-22T17:27:39;101105.94;;;21.63;35.99
85669;BME280;76101;44.794;10.344;2024-03-22T17:30:44;101100.44;;;21.53;36.53
85669;BME280;76101;44.794;10.344;2024-03-22T17:33:45;101097.34;;;21.44;36.59
85669;BME280;76101;44.794;10.344;2024-03-22T17:36:45;101110.25;;;21.42;36.90
85669;BME280;76101;44.794;10.344;2024-03-22T17:39:46;101097.53;;;21.38;37.21
85669;BME280;76101;44.794;10.344;2024-03-22T17:42:46;101099.13;;;21.34;36.88
85669;BME280;76101;44.794;10.344;2024-03-22T17:45:55;101095.25;;;21.29;36.91
85669;BME280;76101;44.794;10.344;2024-03-22T17:48:55;101090.63;;;21.25;37.23
85669;BME280;76101;44.794;10.344;2024-03-22T17:51:56;101086.78;;;21.21;37.36
85669;BME280;76101;44.794;10.344;2024-03-22T17:54:56;101091.84;;;21.17;37.53
85669;BME280;76101;44.794;10.344;2024-03-22T17:57:57;101087.75;;;21.15;37.74
85669;BME280;76101;44.794;10.344;2024-03-22T18:01:10;101102.53;;;21.12;38.00
85669;BME280;76101;44.794;10.344;2024-03-22T18:04:10;101097.59;;;21.04;38.59
85669;BME280;76101;44.794;10.344;2024-03-22T18:07:12;101101.75;;;20.95;38.46
85669;BME280;76101;44.794;10.344;2024-03-22T18:10:12;101098.75;;;20.91;38.74
85669;BME280;76101;44.794;10.344;2024-03-22T18:13:15;101104.63;;;20.88;38.48
85669;BME280;76101;44.794;10.344;2024-03-22T18:16:15;101104.31;;;20.85;39.11
85669;BME280;76101;44.794;10.344;2024-03-22T18:19:17;101108.22;;;20.77;38.89
85669;BME280;76101;44.794;10.344;2024-03-22T18:22:20;101100.88;;;20.72;38.45
85669;BME280;76101;44.794;10.344;2024-03-22T18:25:20;101101.63;;;20.68;39.20
85669;BME280;76101;44.794;10.344;2024-03-22T18:28:21;101104.22;;;20.63;39.03
85669;BME280;76101;44.794;10.344;2024-03-22T18:31:21;101105.19;;;20.57;38.82
85669;BME280;76101;44.794;10.344;2024-03-22T18:34:23;101112.94;;;20.53;38.90
85669;BME280;76101;44.794;10.344;2024-03-22T18:37:31;101109.94;;;20.50;39.15
85669;BME280;76101;44.794;10.344;2024-03-22T18:40:31;101105.00;;;20.47;39.26
85669;BME280;76101;44.794;10.344;2024-03-22T18:43:32;101102.47;;;20.40;39.51
85669;BME280;76101;44.794;10.344;2024-03-22T18:46:53;101101.88;;;20.38;39.66
85669;BME280;76101;44.794;10.344;2024-03-22T18:50:13;101098.50;;;20.31;39.77
85669;BME280;76101;44.794;10.344;2024-03-22T18:53:35;101101.69;;;20.28;39.82
85669;BME280;76101;44.794;10.344;2024-03-22T19:00:58;101084.13;;;20.08;40.08
85669;BME280;76101;44.794;10.344;2024-03-22T19:04:23;101090.09;;;20.10;39.88
85669;BME280;76101;44.794;10.344;2024-03-22T19:08:00;101097.75;;;20.02;39.75
85669;BME280;76101;44.794;10.344;2024-03-22T19:11:03;101090.78;;;19.89;40.15
85669;BME280;76101;44.794;10.344;2024-03-22T19:14:03;101084.50;;;19.83;40.32
85669;BME280;76101;44.794;10.344;2024-03-22T19:21:20;101085.59;;;19.71;40.39
85669;BME280;76101;44.794;10.344;2024-03-22T19:24:22;101093.75;;;19.64;40.39
85669;BME280;76101;44.794;10.344;2024-03-22T19:27:26;101086.91;;;19.57;40.79
85669;BME280;76101;44.794;10.344;2024-03-22T19:30:28;101088.53;;;19.58;41.50
85669;BME280;76101;44.794;10.344;2024-03-22T19:33:29;101085.50;;;19.54;40.62
85669;BME280;76101;44.794;10.344;2024-03-22T19:36:29;101087.59;;;19.52;40.98
85669;BME280;76101;44.794;10.344;2024-03-22T19:39:29;101087.84;;;19.50;41.10
85669;BME280;76101;44.794;10.344;2024-03-22T19:42:31;101091.69;;;19.43;40.93
85669;BME280;76101;44.794;10.344;2024-03-22T19:45:31;101095.09;;;19.38;40.76
85669;BME280;76101;44.794;10.344;2024-03-22T19:48:44;101081.78;;;19.32;41.20
85669;BME280;76101;44.794;10.344;2024-03-22T19:51:44;101080.84;;;19.26;41.20
85669;BME280;76101;44.794;10.344;2024-03-22T19:54:44;101085.75;;;19.29;41.29
85669;BME280;76101;44.794;10.344;2024-03-22T19:57:45;101086.03;;;19.16;41.24
85669;BME280;76101;44.794;10.344;2024-03-22T20:00:45;101095.13;;;19.15;41.65
85669;BME280;76101;44.794;10.344;2024-03-22T20:03:48;101093.25;;;19.04;42.04
85669;BME280;76101;44.794;10.344;2024-03-22T20:06:49;101090.56;;;18.92;42.16
85669;BME280;76101;44.794;10.344;2024-03-22T20:09:49;101097.34;;;18.71;42.82
85669;BME280;76101;44.794;10.344;2024-03-22T20:12:49;101093.47;;;18.67;42.67
85669;BME280;76101;44.794;10.344;2024-03-22T20:15:51;101100.38;;;18.45;43.14
85669;BME280;76101;44.794;10.344;2024-03-22T20:18:52;101097.78;;;18.26;43.55
85669;BME280;76101;44.794;10.344;2024-03-22T20:21:52;101095.16;;;18.08;43.81
85669;BME280;76101;44.794;10.344;2024-03-22T20:24:52;101097.78;;;17.96;44.30
85669;BME280;76101;44.794;10.344;2024-03-22T20:27:53;101098.25;;;17.93;44.02
85669;BME280;76101;44.794;10.344;2024-03-22T20:30:53;101095.94;;;17.79;44.18
85669;BME280;76101;44.794;10.344;2024-03-22T20:33:53;101092.31;;;17.73;44.36
85669;BME280;76101;44.794;10.344;2024-03-22T20:36:54;101086.38;;;17.71;44.77
